sensor_id;sensor_type;location;lat;lon;timestamp;P1;durP1;ratioP1;P2;durP2;ratioP2
34902;SDS011;21114;44.840;0.214;2022-10-26T00:01:47;12.45;;;6.20;;
34902;SDS011;21114;44.840;0.214;2022-10-26T00:05:02;12.73;;;5.75;;
34902;SDS011;21114;44.840;0.214;2022-10-26T00:07:28;11.65;;;5.43;;
34902;SDS011;21114;44.840;0.214;2022-10-26T00:10:28;9.73;;;6.10;;
34902;SDS011;21114;44.840;0.214;2022-10-26T00:12:54;6.57;;;4.70;;
34902;SDS011;21114;44.840;0.214;2022-10-26T00:15:20;10.70;;;6.18;;
34902;SDS011;21114;44.840;0.214;2022-10-26T00:17:47;8.70;;;5.22;;
34902;SDS011;21114;44.840;0.214;2022-10-26T00:20:13;7.68;;;5.00;;
34902;SDS011;21114;44.840;0.214;2022-10-26T00:22:39;12.13;;;5.78;;
34902;SDS011;21114;44.840;0.214;2022-10-26T00:25:05;7.68;;;5.00;;
34902;SDS011;21114;44.840;0.214;2022-10-26T00:27:32;10.55;;;5.18;;
34902;SDS011;21114;44.840;0.214;2022-10-26T00:30:47;7.50;;;4.88;;
34902;SDS011;21114;44.840;0.214;2022-10-26T00:33:13;8.27;;;4.40;;
34902;SDS011;21114;44.840;0.214;2022-10-26T00:35:39;6.80;;;4.75;;
34902;SDS011;21114;44.840;0.214;2022-10-26T00:38:05;9.13;;;7.25;;
34902;SDS011;21114;44.840;0.214;2022-10-26T00:40:31;12.20;;;6.55;;
34902;SDS011;21114;44.840;0.214;2022-10-26T00:42:57;9.35;;;5.70;;
34902;SDS011;21114;44.840;0.214;2022-10-26T00:45:26;10.38;;;5.45;;
34902;SDS011;21114;44.840;0.214;2022-10-26T00:48:25;13.18;;;5.00;;
34902;SDS011;21114;44.840;0.214;2022-10-26T00:51:41;9.32;;;5.78;;
34902;SDS011;21114;44.840;0.214;2022-10-26T00:54:57;6.70;;;5.03;;
34902;SDS011;21114;44.840;0.214;2022-10-26T00:57:23;8.60;;;4.25;;
34902;SDS011;21114;44.840;0.214;2022-10-26T00:59:50;6.57;;;5.15;;
34902;SDS011;21114;44.840;0.214;2022-10-26T01:03:06;10.35;;;4.95;;
34902;SDS011;21114;44.840;0.214;2022-10-26T01:06:21;14.27;;;5.10;;
34902;SDS011;21114;44.840;0.214;2022-10-26T01:08:47;9.85;;;4.72;;
34902;SDS011;21114;44.840;0.214;2022-10-26T01:12:02;10.73;;;6.00;;
34902;SDS011;21114;44.840;0.214;2022-10-26T01:14:28;11.07;;;5.82;;
34902;SDS011;21114;44.840;0.214;2022-10-26T01:31:00;11.98;;;5.57;;
34902;SDS011;21114;44.840;0.214;2022-10-26T01:34:20;9.07;;;4.18;;
34902;SDS011;21114;44.840;0.214;2022-10-26T01:37:26;10.77;;;4.40;;
34902;SDS011;21114;44.840;0.214;2022-10-26T01:40:52;13.02;;;4.28;;
34902;SDS011;21114;44.840;0.214;2022-10-26T01:44:09;9.40;;;4.30;;
34902;SDS011;21114;44.840;0.214;2022-10-26T01:47:25;5.88;;;3.65;;
34902;SDS011;21114;44.840;0.214;2022-10-26T01:50:41;7.85;;;3.63;;
34902;SDS011;21114;44.840;0.214;2022-10-26T01:53:57;6.07;;;3.40;;
34902;SDS011;21114;44.840;0.214;2022-10-26T01:56:25;5.70;;;3.92;;
34902;SDS011;21114;44.840;0.214;2022-10-26T02:16:10;7.72;;;3.65;;
34902;SDS011;21114;44.840;0.214;2022-10-26T02:22:09;9.00;;;4.55;;
34902;SDS011;21114;44.840;0.214;2022-10-26T02:25:26;9.82;;;4.40;;
34902;SDS011;21114;44.840;0.214;2022-10-26T02:28:43;6.78;;;3.38;;
34902;SDS011;21114;44.840;0.214;2022-10-26T02:31:36;6.35;;;3.88;;
34902;SDS011;21114;44.840;0.214;2022-10-26T02:34:51;10.18;;;4.68;;
34902;SDS011;21114;44.840;0.214;2022-10-26T02:38:07;8.95;;;3.90;;
34902;SDS011;21114;44.840;0.214;2022-10-26T02:41:24;8.45;;;3.42;;
34902;SDS011;21114;44.840;0.214;2022-10-26T02:44:42;6.90;;;4.25;;
34902;SDS011;21114;44.840;0.214;2022-10-26T02:47:57;11.77;;;4.32;;
34902;SDS011;21114;44.840;0.214;2022-10-26T02:50:25;5.22;;;3.67;;
34902;SDS011;21114;44.840;0.214;2022-10-26T02:53:45;6.93;;;4.10;;
34902;SDS011;21114;44.840;0.214;2022-10-26T02:59:42;9.75;;;4.50;;
34902;SDS011;21114;44.840;0.214;2022-10-26T03:02:41;10.68;;;4.53;;
34902;SDS011;21114;44.840;0.214;2022-10-26T03:05:56;10.10;;;5.28;;
34902;SDS011;21114;44.840;0.214;2022-10-26T03:08:22;6.70;;;5.22;;
34902;SDS011;21114;44.840;0.214;2022-10-26T03:10:48;8.77;;;4.80;;
34902;SDS011;21114;44.840;0.214;2022-10-26T03:13:14;11.05;;;4.68;;
34902;SDS011;21114;44.840;0.214;2022-10-26T03:15:40;13.60;;;6.68;;
34902;SDS011;21114;44.840;0.214;2022-10-26T03:18:06;11.75;;;5.57;;
34902;SDS011;21114;44.840;0.214;2022-10-26T03:20:32;12.23;;;6.03;;
34902;SDS011;21114;44.840;0.214;2022-10-26T03:22:59;8.98;;;4.95;;
34902;SDS011;21114;44.840;0.214;2022-10-26T03:25:25;8.43;;;5.72;;
34902;SDS011;21114;44.840;0.214;2022-10-26T03:27:59;8.38;;;5.00;;
34902;SDS011;21114;44.840;0.214;2022-10-26T03:31:13;8.90;;;5.43;;
34902;SDS011;21114;44.840;0.214;2022-10-26T03:33:39;8.88;;;4.85;;
34902;SDS011;21114;44.840;0.214;2022-10-26T03:36:05;11.15;;;5.13;;
34902;SDS011;21114;44.840;0.214;2022-10-26T03:38:32;8.18;;;4.95;;
34902;SDS011;21114;44.840;0.214;2022-10-26T03:40:58;6.90;;;4.32;;
34902;SDS011;21114;44.840;0.214;2022-10-26T03:43:24;7.45;;;4.40;;
34902;SDS011;21114;44.840;0.214;2022-10-26T03:45:50;7.40;;;4.43;;
34902;SDS011;21114;44.840;0.214;2022-10-26T03:48:17;8.35;;;4.32;;
34902;SDS011;21114;44.840;0.214;2022-10-26T03:50:43;7.30;;;4.57;;
34902;SDS011;21114;44.840;0.214;2022-10-26T03:53:09;10.20;;;5.13;;
34902;SDS011;21114;44.840;0.214;2022-10-26T03:55:35;8.70;;;4.75;;
34902;SDS011;21114;44.840;0.214;2022-10-26T03:58:02;8.88;;;5.97;;
34902;SDS011;21114;44.840;0.214;2022-10-26T04:00:28;10.40;;;4.85;;
34902;SDS011;21114;44.840;0.214;2022-10-26T04:02:56;8.20;;;4.57;;
34902;SDS011;21114;44.840;0.214;2022-10-26T04:06:10;7.28;;;4.30;;
34902;SDS011;21114;44.840;0.214;2022-10-26T04:08:37;9.27;;;4.60;;
34902;SDS011;21114;44.840;0.214;2022-10-26T04:11:03;7.53;;;4.25;;
34902;SDS011;21114;44.840;0.214;2022-10-26T04:13:29;7.88;;;4.43;;
34902;SDS011;21114;44.840;0.214;2022-10-26T04:15:55;8.45;;;3.75;;
34902;SDS011;21114;44.840;0.214;2022-10-26T04:18:21;12.40;;;5.10;;
34902;SDS011;21114;44.840;0.214;2022-10-26T04:20:47;7.90;;;4.28;;
34902;SDS011;21114;44.840;0.214;2022-10-26T04:23:14;6.55;;;4.22;;
34902;SDS011;21114;44.840;0.214;2022-10-26T04:26:29;10.45;;;4.88;;
34902;SDS011;21114;44.840;0.214;2022-10-26T04:28:55;9.13;;;4.82;;
34902;SDS011;21114;44.840;0.214;2022-10-26T04:31:21;8.32;;;4.55;;
34902;SDS011;21114;44.840;0.214;2022-10-26T04:33:47;5.80;;;3.80;;
34902;SDS011;21114;44.840;0.214;2022-10-26T04:36:13;6.57;;;4.15;;
34902;SDS011;21114;44.840;0.214;2022-10-26T04:38:39;9.77;;;4.53;;
34902;SDS011;21114;44.840;0.214;2022-10-26T04:41:05;8.82;;;4.63;;
34902;SDS011;21114;44.840;0.214;2022-10-26T04:43:31;6.32;;;3.97;;
34902;SDS011;21114;44.840;0.214;2022-10-26T04:45:57;6.03;;;3.88;;
34902;SDS011;21114;44.840;0.214;2022-10-26T04:48:23;9.18;;;4.65;;
34902;SDS011;21114;44.840;0.214;2022-10-26T04:50:49;8.82;;;4.35;;
34902;SDS011;21114;44.840;0.214;2022-10-26T04:53:16;6.95;;;4.32;;
34902;SDS011;21114;44.840;0.214;2022-10-26T04:55:42;7.07;;;3.67;;
34902;SDS011;21114;44.840;0.214;2022-10-26T04:58:08;7.57;;;3.40;;
34902;SDS011;21114;44.840;0.214;2022-10-26T05:00:34;5.82;;;4.10;;
34902;SDS011;21114;44.840;0.214;2022-10-26T05:03:00;6.85;;;4.53;;
34902;SDS011;21114;44.840;0.214;2022-10-26T05:06:16;8.02;;;5.70;;
34902;SDS011;21114;44.840;0.214;2022-10-26T05:08:42;6.63;;;4.05;;
34902;SDS011;21114;44.840;0.214;2022-10-26T05:11:08;5.57;;;4.18;;
34902;SDS011;21114;44.840;0.214;2022-10-26T05:13:34;6.47;;;3.90;;
34902;SDS011;21114;44.840;0.214;2022-10-26T05:16:00;7.18;;;4.45;;
34902;SDS011;21114;44.840;0.214;2022-10-26T05:18:26;8.90;;;4.25;;
34902;SDS011;21114;44.840;0.214;2022-10-26T05:20:53;8.43;;;4.18;;
34902;SDS011;21114;44.840;0.214;2022-10-26T05:23:19;5.93;;;4.35;;
34902;SDS011;21114;44.840;0.214;2022-10-26T05:25:45;8.55;;;5.75;;
34902;SDS011;21114;44.840;0.214;2022-10-26T05:28:12;7.00;;;4.18;;
34902;SDS011;21114;44.840;0.214;2022-10-26T05:31:27;9.50;;;5.28;;
34902;SDS011;21114;44.840;0.214;2022-10-26T05:33:53;9.10;;;4.57;;
34902;SDS011;21114;44.840;0.214;2022-10-26T05:36:19;5.90;;;3.97;;
34902;SDS011;21114;44.840;0.214;2022-10-26T05:38:45;6.50;;;4.47;;
34902;SDS011;21114;44.840;0.214;2022-10-26T05:42:00;5.25;;;3.95;;
34902;SDS011;21114;44.840;0.214;2022-10-26T05:44:26;5.75;;;4.13;;
34902;SDS011;21114;44.840;0.214;2022-10-26T05:46:52;5.93;;;4.35;;
34902;SDS011;21114;44.840;0.214;2022-10-26T05:49:18;7.35;;;5.00;;
34902;SDS011;21114;44.840;0.214;2022-10-26T05:51:44;5.53;;;3.83;;
34902;SDS011;21114;44.840;0.214;2022-10-26T05:54:10;6.20;;;4.70;;
34902;SDS011;21114;44.840;0.214;2022-10-26T05:56:37;8.65;;;4.38;;
34902;SDS011;21114;44.840;0.214;2022-10-26T05:59:52;5.43;;;3.78;;
34902;SDS011;21114;44.840;0.214;2022-10-26T06:05:02;8.73;;;3.97;;
34902;SDS011;21114;44.840;0.214;2022-10-26T06:08:17;7.22;;;4.43;;
34902;SDS011;21114;44.840;0.214;2022-10-26T06:10:44;11.07;;;6.93;;
34902;SDS011;21114;44.840;0.214;2022-10-26T06:13:10;9.45;;;5.53;;
34902;SDS011;21114;44.840;0.214;2022-10-26T06:15:39;14.48;;;5.50;;
34902;SDS011;21114;44.840;0.214;2022-10-26T06:19:02;7.53;;;4.20;;
34902;SDS011;21114;44.840;0.214;2022-10-26T06:22:25;9.57;;;5.40;;
34902;SDS011;21114;44.840;0.214;2022-10-26T06:31:14;13.65;;;6.13;;
34902;SDS011;21114;44.840;0.214;2022-10-26T06:33:40;6.90;;;4.45;;
34902;SDS011;21114;44.840;0.214;2022-10-26T06:36:11;8.45;;;4.30;;
34902;SDS011;21114;44.840;0.214;2022-10-26T06:39:28;4.82;;;3.70;;
34902;SDS011;21114;44.840;0.214;2022-10-26T06:42:27;11.18;;;4.90;;
34902;SDS011;21114;44.840;0.214;2022-10-26T06:44:53;7.68;;;4.57;;
34902;SDS011;21114;44.840;0.214;2022-10-26T06:47:29;10.77;;;4.10;;
34902;SDS011;21114;44.840;0.214;2022-10-26T06:55:53;9.20;;;4.07;;
34902;SDS011;21114;44.840;0.214;2022-10-26T06:59:15;6.32;;;3.53;;
34902;SDS011;21114;44.840;0.214;2022-10-26T07:02:31;10.30;;;4.50;;
34902;SDS011;21114;44.840;0.214;2022-10-26T07:04:57;7.68;;;5.22;;
34902;SDS011;21114;44.840;0.214;2022-10-26T07:07:24;12.93;;;4.70;;
34902;SDS011;21114;44.840;0.214;2022-10-26T07:10:35;12.32;;;5.00;;
34902;SDS011;21114;44.840;0.214;2022-10-26T07:13:04;7.05;;;4.07;;
34902;SDS011;21114;44.840;0.214;2022-10-26T07:16:18;9.77;;;4.90;;
34902;SDS011;21114;44.840;0.214;2022-10-26T07:18:46;7.97;;;4.82;;
34902;SDS011;21114;44.840;0.214;2022-10-26T07:21:12;8.60;;;6.00;;
34902;SDS011;21114;44.840;0.214;2022-10-26T07:23:38;9.88;;;5.43;;
34902;SDS011;21114;44.840;0.214;2022-10-26T07:26:04;6.60;;;3.55;;
34902;SDS011;21114;44.840;0.214;2022-10-26T07:28:30;6.05;;;3.60;;
34902;SDS011;21114;44.840;0.214;2022-10-26T07:30:57;8.38;;;5.05;;
34902;SDS011;21114;44.840;0.214;2022-10-26T07:34:11;7.88;;;4.32;;
34902;SDS011;21114;44.840;0.214;2022-10-26T07:36:37;8.70;;;4.57;;
34902;SDS011;21114;44.840;0.214;2022-10-26T07:39:04;8.07;;;4.15;;
34902;SDS011;21114;44.840;0.214;2022-10-26T07:42:18;8.10;;;4.15;;
34902;SDS011;21114;44.840;0.214;2022-10-26T07:44:45;6.93;;;3.88;;
34902;SDS011;21114;44.840;0.214;2022-10-26T07:47:11;9.88;;;5.13;;
34902;SDS011;21114;44.840;0.214;2022-10-26T07:49:37;9.35;;;4.47;;
34902;SDS011;21114;44.840;0.214;2022-10-26T07:52:03;5.07;;;4.32;;
34902;SDS011;21114;44.840;0.214;2022-10-26T07:54:29;8.13;;;4.93;;
34902;SDS011;21114;44.840;0.214;2022-10-26T07:57:44;9.23;;;5.28;;
34902;SDS011;21114;44.840;0.214;2022-10-26T08:00:10;7.72;;;4.07;;
34902;SDS011;21114;44.840;0.214;2022-10-26T08:02:37;7.90;;;4.78;;
34902;SDS011;21114;44.840;0.214;2022-10-26T08:05:03;6.70;;;4.93;;
34902;SDS011;21114;44.840;0.214;2022-10-26T08:08:20;4.43;;;3.60;;
34902;SDS011;21114;44.840;0.214;2022-10-26T08:10:46;7.93;;;5.40;;
34902;SDS011;21114;44.840;0.214;2022-10-26T08:13:12;9.27;;;4.97;;
34902;SDS011;21114;44.840;0.214;2022-10-26T08:15:38;6.05;;;4.93;;
34902;SDS011;21114;44.840;0.214;2022-10-26T08:18:53;8.82;;;5.95;;
34902;SDS011;21114;44.840;0.214;2022-10-26T08:21:19;9.48;;;5.10;;
34902;SDS011;21114;44.840;0.214;2022-10-26T08:23:45;8.18;;;5.07;;
34902;SDS011;21114;44.840;0.214;2022-10-26T08:26:12;7.97;;;4.82;;
34902;SDS011;21114;44.840;0.214;2022-10-26T08:28:38;6.35;;;4.53;;
34902;SDS011;21114;44.840;0.214;2022-10-26T08:31:53;9.35;;;4.50;;
34902;SDS011;21114;44.840;0.214;2022-10-26T08:34:20;10.20;;;5.30;;
34902;SDS011;21114;44.840;0.214;2022-10-26T08:36:46;9.93;;;4.30;;
34902;SDS011;21114;44.840;0.214;2022-10-26T08:39:14;15.80;;;4.50;;
34902;SDS011;21114;44.840;0.214;2022-10-26T08:41:42;7.88;;;5.32;;
34902;SDS011;21114;44.840;0.214;2022-10-26T08:44:58;9.48;;;4.35;;
34902;SDS011;21114;44.840;0.214;2022-10-26T08:48:15;8.68;;;5.10;;
34902;SDS011;21114;44.840;0.214;2022-10-26T08:51:31;7.97;;;4.30;;
34902;SDS011;21114;44.840;0.214;2022-10-26T08:54:50;11.48;;;4.60;;
34902;SDS011;21114;44.840;0.214;2022-10-26T08:58:06;5.40;;;3.90;;
34902;SDS011;21114;44.840;0.214;2022-10-26T09:01:23;9.05;;;3.78;;
34902;SDS011;21114;44.840;0.214;2022-10-26T09:03:50;13.50;;;9.73;;
34902;SDS011;21114;44.840;0.214;2022-10-26T09:09:14;8.73;;;4.63;;
34902;SDS011;21114;44.840;0.214;2022-10-26T09:26:28;9.25;;;5.68;;
34902;SDS011;21114;44.840;0.214;2022-10-26T09:29:43;8.45;;;4.90;;
34902;SDS011;21114;44.840;0.214;2022-10-26T09:32:12;7.10;;;5.40;;
34902;SDS011;21114;44.840;0.214;2022-10-26T09:46:35;9.57;;;4.80;;
34902;SDS011;21114;44.840;0.214;2022-10-26T09:49:54;13.05;;;6.90;;
34902;SDS011;21114;44.840;0.214;2022-10-26T09:53:09;15.10;;;5.38;;
34902;SDS011;21114;44.840;0.214;2022-10-26T09:55:38;9.90;;;6.10;;
34902;SDS011;21114;44.840;0.214;2022-10-26T09:58:55;9.60;;;6.28;;
34902;SDS011;21114;44.840;0.214;2022-10-26T10:13:40;15.82;;;6.18;;
34902;SDS011;21114;44.840;0.214;2022-10-26T10:16:58;8.27;;;5.53;;
34902;SDS011;21114;44.840;0.214;2022-10-26T10:20:16;9.40;;;6.25;;
34902;SDS011;21114;44.840;0.214;2022-10-26T10:23:33;13.57;;;7.63;;
34902;SDS011;21114;44.840;0.214;2022-10-26T10:29:43;12.25;;;6.90;;
34902;SDS011;21114;44.840;0.214;2022-10-26T10:33:06;12.80;;;6.20;;
34902;SDS011;21114;44.840;0.214;2022-10-26T10:36:22;13.50;;;6.15;;
34902;SDS011;21114;44.840;0.214;2022-10-26T10:39:38;10.18;;;5.50;;
34902;SDS011;21114;44.840;0.214;2022-10-26T10:43:11;8.85;;;5.13;;
34902;SDS011;21114;44.840;0.214;2022-10-26T10:46:26;10.10;;;5.35;;
34902;SDS011;21114;44.840;0.214;2022-10-26T10:52:34;7.97;;;5.60;;
34902;SDS011;21114;44.840;0.214;2022-10-26T10:56:00;10.45;;;5.55;;
34902;SDS011;21114;44.840;0.214;2022-10-26T11:07:27;13.70;;;7.05;;
34902;SDS011;21114;44.840;0.214;2022-10-26T11:10:51;15.30;;;6.88;;
34902;SDS011;21114;44.840;0.214;2022-10-26T11:16:46;10.88;;;6.20;;
34902;SDS011;21114;44.840;0.214;2022-10-26T11:20:03;10.27;;;5.80;;
34902;SDS011;21114;44.840;0.214;2022-10-26T11:23:30;7.22;;;5.20;;
34902;SDS011;21114;44.840;0.214;2022-10-26T11:32:27;8.07;;;5.65;;
34902;SDS011;21114;44.840;0.214;2022-10-26T11:35:44;9.70;;;4.75;;
34902;SDS011;21114;44.840;0.214;2022-10-26T11:39:04;9.90;;;6.30;;
34902;SDS011;21114;44.840;0.214;2022-10-26T11:42:23;9.60;;;5.93;;
34902;SDS011;21114;44.840;0.214;2022-10-26T11:45:40;10.45;;;6.55;;
34902;SDS011;21114;44.840;0.214;2022-10-26T11:49:00;8.52;;;4.72;;
34902;SDS011;21114;44.840;0.214;2022-10-26T11:55:10;8.68;;;3.97;;
34902;SDS011;21114;44.840;0.214;2022-10-26T11:57:43;7.30;;;4.30;;
34902;SDS011;21114;44.840;0.214;2022-10-26T12:02:53;8.02;;;4.32;;
34902;SDS011;21114;44.840;0.214;2022-10-26T12:06:09;6.53;;;4.68;;
34902;SDS011;21114;44.840;0.214;2022-10-26T12:09:25;7.18;;;4.68;;
34902;SDS011;21114;44.840;0.214;2022-10-26T12:12:42;7.68;;;4.78;;
34902;SDS011;21114;44.840;0.214;2022-10-26T12:18:53;7.88;;;2.78;;
34902;SDS011;21114;44.840;0.214;2022-10-26T12:22:08;5.95;;;2.92;;
34902;SDS011;21114;44.840;0.214;2022-10-26T12:25:24;5.78;;;3.53;;
34902;SDS011;21114;44.840;0.214;2022-10-26T12:27:52;4.55;;;2.47;;
34902;SDS011;21114;44.840;0.214;2022-10-26T12:33:59;7.40;;;2.65;;
34902;SDS011;21114;44.840;0.214;2022-10-26T12:39:52;6.05;;;2.10;;
34902;SDS011;21114;44.840;0.214;2022-10-26T12:42:53;3.53;;;1.88;;
34902;SDS011;21114;44.840;0.214;2022-10-26T12:45:19;4.88;;;2.30;;
34902;SDS011;21114;44.840;0.214;2022-10-26T12:50:25;4.60;;;2.40;;
34902;SDS011;21114;44.840;0.214;2022-10-26T12:52:52;5.68;;;2.50;;
34902;SDS011;21114;44.840;0.214;2022-10-26T12:56:08;5.93;;;2.50;;
34902;SDS011;21114;44.840;0.214;2022-10-26T12:59:45;7.97;;;3.22;;
34902;SDS011;21114;44.840;0.214;2022-10-26T13:02:38;14.05;;;2.63;;
34902;SDS011;21114;44.840;0.214;2022-10-26T13:08:40;8.55;;;3.15;;
34902;SDS011;21114;44.840;0.214;2022-10-26T13:11:57;4.53;;;2.78;;
34902;SDS011;21114;44.840;0.214;2022-10-26T13:14:24;6.70;;;2.90;;
34902;SDS011;21114;44.840;0.214;2022-10-26T13:17:25;7.30;;;2.60;;
34902;SDS011;21114;44.840;0.214;2022-10-26T13:23:30;9.98;;;3.20;;
34902;SDS011;21114;44.840;0.214;2022-10-26T13:32:32;7.00;;;2.45;;
34902;SDS011;21114;44.840;0.214;2022-10-26T13:35:47;6.40;;;2.58;;
34902;SDS011;21114;44.840;0.214;2022-10-26T13:39:04;5.47;;;3.17;;
34902;SDS011;21114;44.840;0.214;2022-10-26T13:42:20;6.85;;;2.35;;
34902;SDS011;21114;44.840;0.214;2022-10-26T13:45:45;9.75;;;4.18;;
34902;SDS011;21114;44.840;0.214;2022-10-26T13:49:02;8.65;;;2.83;;
34902;SDS011;21114;44.840;0.214;2022-10-26T13:52:21;8.20;;;3.47;;
34902;SDS011;21114;44.840;0.214;2022-10-26T13:55:39;6.03;;;2.95;;
34902;SDS011;21114;44.840;0.214;2022-10-26T13:59:00;9.65;;;2.83;;
34902;SDS011;21114;44.840;0.214;2022-10-26T14:02:18;5.78;;;2.40;;
34902;SDS011;21114;44.840;0.214;2022-10-26T14:05:33;12.25;;;4.43;;
34902;SDS011;21114;44.840;0.214;2022-10-26T14:07:59;6.32;;;3.13;;
34902;SDS011;21114;44.840;0.214;2022-10-26T14:13:08;10.15;;;2.78;;
34902;SDS011;21114;44.840;0.214;2022-10-26T14:16:24;5.47;;;2.75;;
34902;SDS011;21114;44.840;0.214;2022-10-26T14:19:40;7.88;;;3.85;;
34902;SDS011;21114;44.840;0.214;2022-10-26T14:22:57;7.78;;;2.97;;
34902;SDS011;21114;44.840;0.214;2022-10-26T14:25:24;8.90;;;3.92;;
34902;SDS011;21114;44.840;0.214;2022-10-26T14:28:42;5.07;;;2.65;;
34902;SDS011;21114;44.840;0.214;2022-10-26T14:31:59;9.05;;;3.80;;
34902;SDS011;21114;44.840;0.214;2022-10-26T14:34:25;6.45;;;2.72;;
34902;SDS011;21114;44.840;0.214;2022-10-26T14:36:53;6.68;;;2.53;;
34902;SDS011;21114;44.840;0.214;2022-10-26T14:40:14;12.60;;;4.97;;
34902;SDS011;21114;44.840;0.214;2022-10-26T14:42:58;7.55;;;2.58;;
34902;SDS011;21114;44.840;0.214;2022-10-26T14:46:14;3.67;;;2.50;;
34902;SDS011;21114;44.840;0.214;2022-10-26T14:49:29;7.78;;;2.65;;
34902;SDS011;21114;44.840;0.214;2022-10-26T14:51:57;8.13;;;2.90;;
34902;SDS011;21114;44.840;0.214;2022-10-26T14:55:13;7.03;;;2.88;;
34902;SDS011;21114;44.840;0.214;2022-10-26T14:58:29;5.22;;;2.80;;
34902;SDS011;21114;44.840;0.214;2022-10-26T15:01:50;6.13;;;2.60;;
34902;SDS011;21114;44.840;0.214;2022-10-26T15:05:00;5.05;;;2.50;;
34902;SDS011;21114;44.840;0.214;2022-10-26T15:11:08;11.95;;;2.83;;
34902;SDS011;21114;44.840;0.214;2022-10-26T15:14:27;5.10;;;2.08;;
34902;SDS011;21114;44.840;0.214;2022-10-26T15:16:54;10.13;;;5.80;;
34902;SDS011;21114;44.840;0.214;2022-10-26T15:20:13;8.43;;;2.55;;
34902;SDS011;21114;44.840;0.214;2022-10-26T15:23:29;6.30;;;2.88;;
34902;SDS011;21114;44.840;0.214;2022-10-26T15:26:44;5.05;;;2.05;;
34902;SDS011;21114;44.840;0.214;2022-10-26T15:29:32;9.27;;;3.28;;
34902;SDS011;21114;44.840;0.214;2022-10-26T15:32:45;5.65;;;2.17;;
34902;SDS011;21114;44.840;0.214;2022-10-26T15:37:57;4.53;;;1.98;;
34902;SDS011;21114;44.840;0.214;2022-10-26T15:44:01;6.57;;;2.47;;
34902;SDS011;21114;44.840;0.214;2022-10-26T15:47:16;8.45;;;2.83;;
34902;SDS011;21114;44.840;0.214;2022-10-26T15:50:31;4.63;;;3.03;;
34902;SDS011;21114;44.840;0.214;2022-10-26T15:52:59;4.55;;;1.73;;
34902;SDS011;21114;44.840;0.214;2022-10-26T15:56:14;7.47;;;2.45;;
34902;SDS011;21114;44.840;0.214;2022-10-26T15:59:33;7.45;;;3.13;;
34902;SDS011;21114;44.840;0.214;2022-10-26T16:01:59;6.28;;;2.13;;
34902;SDS011;21114;44.840;0.214;2022-10-26T16:04:25;7.10;;;3.22;;
34902;SDS011;21114;44.840;0.214;2022-10-26T16:06:51;7.22;;;3.30;;
34902;SDS011;21114;44.840;0.214;2022-10-26T16:09:37;7.90;;;2.50;;
34902;SDS011;21114;44.840;0.214;2022-10-26T16:12:04;9.27;;;3.92;;
34902;SDS011;21114;44.840;0.214;2022-10-26T16:14:31;8.88;;;2.53;;
34902;SDS011;21114;44.840;0.214;2022-10-26T16:16:57;7.68;;;2.83;;
34902;SDS011;21114;44.840;0.214;2022-10-26T16:19:23;4.25;;;2.47;;
34902;SDS011;21114;44.840;0.214;2022-10-26T16:21:49;8.48;;;3.03;;
34902;SDS011;21114;44.840;0.214;2022-10-26T16:25:06;5.28;;;3.08;;
34902;SDS011;21114;44.840;0.214;2022-10-26T16:28:21;6.03;;;2.72;;
34902;SDS011;21114;44.840;0.214;2022-10-26T16:30:47;12.02;;;3.35;;
34902;SDS011;21114;44.840;0.214;2022-10-26T16:33:13;6.90;;;3.15;;
34902;SDS011;21114;44.840;0.214;2022-10-26T16:35:39;9.88;;;3.85;;
34902;SDS011;21114;44.840;0.214;2022-10-26T16:38:05;9.43;;;3.55;;
34902;SDS011;21114;44.840;0.214;2022-10-26T16:40:31;11.43;;;3.90;;
34902;SDS011;21114;44.840;0.214;2022-10-26T16:42:57;10.00;;;3.70;;
34902;SDS011;21114;44.840;0.214;2022-10-26T16:45:23;10.88;;;3.60;;
34902;SDS011;21114;44.840;0.214;2022-10-26T16:47:50;7.22;;;3.92;;
34902;SDS011;21114;44.840;0.214;2022-10-26T16:50:16;7.97;;;2.88;;
34902;SDS011;21114;44.840;0.214;2022-10-26T16:52:45;7.32;;;3.15;;
34902;SDS011;21114;44.840;0.214;2022-10-26T16:55:11;8.60;;;4.20;;
34902;SDS011;21114;44.840;0.214;2022-10-26T16:57:38;8.95;;;3.33;;
34902;SDS011;21114;44.840;0.214;2022-10-26T17:00:04;5.93;;;3.65;;
34902;SDS011;21114;44.840;0.214;2022-10-26T17:03:19;6.93;;;3.50;;
34902;SDS011;21114;44.840;0.214;2022-10-26T17:05:45;9.38;;;4.40;;
34902;SDS011;21114;44.840;0.214;2022-10-26T17:08:11;12.32;;;4.45;;
34902;SDS011;21114;44.840;0.214;2022-10-26T17:10:37;9.02;;;5.05;;
34902;SDS011;21114;44.840;0.214;2022-10-26T17:13:03;17.65;;;6.22;;
34902;SDS011;21114;44.840;0.214;2022-10-26T17:15:31;23.40;;;5.40;;
34902;SDS011;21114;44.840;0.214;2022-10-26T17:18:46;9.75;;;4.35;;
34902;SDS011;21114;44.840;0.214;2022-10-26T17:22:01;10.60;;;5.20;;
34902;SDS011;21114;44.840;0.214;2022-10-26T17:24:27;11.60;;;5.47;;
34902;SDS011;21114;44.840;0.214;2022-10-26T17:26:53;9.95;;;5.43;;
34902;SDS011;21114;44.840;0.214;2022-10-26T17:29:19;13.23;;;4.55;;
34902;SDS011;21114;44.840;0.214;2022-10-26T17:31:45;13.98;;;4.85;;
34902;SDS011;21114;44.840;0.214;2022-10-26T17:34:12;10.27;;;4.45;;
34902;SDS011;21114;44.840;0.214;2022-10-26T17:36:38;10.68;;;4.20;;
34902;SDS011;21114;44.840;0.214;2022-10-26T17:39:04;8.52;;;5.50;;
34902;SDS011;21114;44.840;0.214;2022-10-26T17:41:30;17.50;;;7.45;;
34902;SDS011;21114;44.840;0.214;2022-10-26T17:43:56;12.77;;;7.07;;
34902;SDS011;21114;44.840;0.214;2022-10-26T17:46:23;12.93;;;5.80;;
34902;SDS011;21114;44.840;0.214;2022-10-26T17:49:41;11.73;;;5.53;;
34902;SDS011;21114;44.840;0.214;2022-10-26T17:52:07;10.95;;;6.10;;
34902;SDS011;21114;44.840;0.214;2022-10-26T17:54:35;9.77;;;4.47;;
34902;SDS011;21114;44.840;0.214;2022-10-26T17:57:01;11.25;;;5.35;;
34902;SDS011;21114;44.840;0.214;2022-10-26T17:59:27;6.80;;;4.28;;
34902;SDS011;21114;44.840;0.214;2022-10-26T18:01:53;7.97;;;3.92;;
34902;SDS011;21114;44.840;0.214;2022-10-26T18:04:20;10.57;;;4.95;;
34902;SDS011;21114;44.840;0.214;2022-10-26T18:07:35;9.98;;;5.18;;
34902;SDS011;21114;44.840;0.214;2022-10-26T18:10:01;9.93;;;4.50;;
34902;SDS011;21114;44.840;0.214;2022-10-26T18:12:27;7.22;;;4.10;;
34902;SDS011;21114;44.840;0.214;2022-10-26T18:14:53;14.77;;;4.80;;
34902;SDS011;21114;44.840;0.214;2022-10-26T18:17:19;13.38;;;5.22;;
34902;SDS011;21114;44.840;0.214;2022-10-26T18:19:45;11.80;;;5.85;;
34902;SDS011;21114;44.840;0.214;2022-10-26T18:22:11;11.20;;;4.63;;
34902;SDS011;21114;44.840;0.214;2022-10-26T18:24:37;8.85;;;4.38;;
34902;SDS011;21114;44.840;0.214;2022-10-26T18:27:03;8.35;;;3.47;;
34902;SDS011;21114;44.840;0.214;2022-10-26T18:29:29;10.07;;;5.20;;
34902;SDS011;21114;44.840;0.214;2022-10-26T18:31:55;10.70;;;4.90;;
34902;SDS011;21114;44.840;0.214;2022-10-26T18:34:21;7.43;;;4.13;;
34902;SDS011;21114;44.840;0.214;2022-10-26T18:36:48;7.88;;;3.75;;
34902;SDS011;21114;44.840;0.214;2022-10-26T18:39:14;9.30;;;5.60;;
34902;SDS011;21114;44.840;0.214;2022-10-26T18:41:40;9.63;;;4.07;;
34902;SDS011;21114;44.840;0.214;2022-10-26T18:44:07;8.93;;;4.75;;
34902;SDS011;21114;44.840;0.214;2022-10-26T18:47:25;8.70;;;4.65;;
34902;SDS011;21114;44.840;0.214;2022-10-26T18:49:51;11.13;;;4.72;;
34902;SDS011;21114;44.840;0.214;2022-10-26T18:52:17;10.82;;;4.00;;
34902;SDS011;21114;44.840;0.214;2022-10-26T18:54:43;13.27;;;5.07;;
34902;SDS011;21114;44.840;0.214;2022-10-26T18:57:09;6.43;;;4.53;;
34902;SDS011;21114;44.840;0.214;2022-10-26T18:59:35;7.97;;;4.78;;
34902;SDS011;21114;44.840;0.214;2022-10-26T19:02:01;9.75;;;4.90;;
34902;SDS011;21114;44.840;0.214;2022-10-26T19:04:27;11.60;;;5.22;;
34902;SDS011;21114;44.840;0.214;2022-10-26T19:06:53;11.80;;;3.80;;
34902;SDS011;21114;44.840;0.214;2022-10-26T19:09:20;14.10;;;5.75;;
34902;SDS011;21114;44.840;0.214;2022-10-26T19:11:46;10.68;;;6.45;;